TFL97T EBBR-EHAM
Flight info
| Callsign | TFL97T |
|---|---|
| Flight time | N/A |
| Altitude | 14000 |
| Route | HELEN |
| Aircraft | B38M/M-SDE1FGHILORVWXY/HB1 |
Departure
| Time | 2026-05-04 13:29 |
|---|---|
| Airport | Brussels Airport (EBBR) |
Arrival
| Time | N/A |
|---|---|
| Airport | Amsterdam Airport Schiphol (EHAM) |
| Time | Latitude | Longitude | Altitude | Speed | Heading |
|---|---|---|---|---|---|
| 2026-05-04 12:53 | 50.90241 | 4.48466 | 117 ft | 0 kts | 335° |
| 2026-05-04 13:14 | 50.90238 | 4.48468 | 122 ft | 3 kts | 335° |
| 2026-05-04 13:14 | 50.90222 | 4.48480 | 118 ft | 3 kts | 335° |
| 2026-05-04 13:14 | 50.90206 | 4.48492 | 119 ft | 2 kts | 335° |
| 2026-05-04 13:14 | 50.90190 | 4.48503 | 119 ft | 2 kts | 355° |
| 2026-05-04 13:15 | 50.90174 | 4.48497 | 122 ft | 2 kts | 56° |
| 2026-05-04 13:15 | 50.90173 | 4.48493 | 122 ft | 0 kts | 61° |
| 2026-05-04 13:18 | 50.90178 | 4.48509 | 121 ft | 5 kts | 61° |
| 2026-05-04 13:19 | 50.90198 | 4.48598 | 121 ft | 12 kts | 71° |
| 2026-05-04 13:19 | 50.90222 | 4.48690 | 121 ft | 15 kts | 66° |
| 2026-05-04 13:19 | 50.90283 | 4.48910 | 122 ft | 18 kts | 66° |
| 2026-05-04 13:19 | 50.90340 | 4.49103 | 121 ft | 21 kts | 64° |
| 2026-05-04 13:20 | 50.90381 | 4.49243 | 121 ft | 21 kts | 68° |
| 2026-05-04 13:20 | 50.90359 | 4.49375 | 124 ft | 7 kts | 154° |
| 2026-05-04 13:20 | 50.90358 | 4.49375 | 124 ft | 7 kts | 154° |
| 2026-05-04 13:20 | 50.90341 | 4.49383 | 123 ft | 2 kts | 157° |
| 2026-05-04 13:21 | 50.90329 | 4.49386 | 126 ft | 4 kts | 169° |
| 2026-05-04 13:21 | 50.90293 | 4.49392 | 124 ft | 6 kts | 175° |
| 2026-05-04 13:21 | 50.90254 | 4.49390 | 126 ft | 6 kts | 189° |
| 2026-05-04 13:21 | 50.90211 | 4.49376 | 127 ft | 7 kts | 192° |
| 2026-05-04 13:22 | 50.90165 | 4.49359 | 130 ft | 7 kts | 194° |
| 2026-05-04 13:22 | 50.90116 | 4.49341 | 132 ft | 8 kts | 193° |
| 2026-05-04 13:22 | 50.90057 | 4.49318 | 132 ft | 10 kts | 193° |
| 2026-05-04 13:22 | 50.89989 | 4.49291 | 134 ft | 10 kts | 197° |
| 2026-05-04 13:23 | 50.89929 | 4.49263 | 137 ft | 8 kts | 196° |
| 2026-05-04 13:23 | 50.89879 | 4.49241 | 140 ft | 8 kts | 195° |
| 2026-05-04 13:23 | 50.89823 | 4.49218 | 143 ft | 9 kts | 194° |
| 2026-05-04 13:23 | 50.89762 | 4.49194 | 147 ft | 9 kts | 194° |
| 2026-05-04 13:24 | 50.89693 | 4.49169 | 150 ft | 10 kts | 191° |
| 2026-05-04 13:24 | 50.89617 | 4.49175 | 155 ft | 12 kts | 174° |
| 2026-05-04 13:24 | 50.89525 | 4.49170 | 160 ft | 14 kts | 189° |
| 2026-05-04 13:25 | 50.89294 | 4.49077 | 169 ft | 20 kts | 193° |
| 2026-05-04 13:25 | 50.89157 | 4.49023 | 177 ft | 21 kts | 193° |
| 2026-05-04 13:25 | 50.89003 | 4.48961 | 182 ft | 24 kts | 193° |
| 2026-05-04 13:25 | 50.88868 | 4.48910 | 193 ft | 16 kts | 193° |
| 2026-05-04 13:26 | 50.88770 | 4.48947 | 200 ft | 10 kts | 139° |
| 2026-05-04 13:26 | 50.88753 | 4.48975 | 208 ft | 0 kts | 132° |
| 2026-05-04 13:26 | 50.88750 | 4.48980 | 208 ft | 2 kts | 130° |
| 2026-05-04 13:26 | 50.88740 | 4.49004 | 198 ft | 0 kts | 118° |
| 2026-05-04 13:27 | 50.88739 | 4.49008 | 201 ft | 2 kts | 117° |
| 2026-05-04 13:27 | 50.88731 | 4.49040 | 198 ft | 6 kts | 110° |
| 2026-05-04 13:28 | 50.88729 | 4.49117 | 193 ft | 9 kts | 74° |
| 2026-05-04 13:28 | 50.88787 | 4.49177 | 197 ft | 12 kts | 18° |
| 2026-05-04 13:28 | 50.88964 | 4.49246 | 188 ft | 60 kts | 16° |
| 2026-05-04 13:28 | 50.89645 | 4.49529 | 155 ft | 137 kts | 14° |
| 2026-05-04 13:29 | 50.90737 | 4.49966 | 140 ft | 182 kts | 14° |
| 2026-05-04 13:29 | 50.92026 | 4.50479 | 359 ft | 195 kts | 14° |
| 2026-05-04 13:29 | 50.93339 | 4.50998 | 836 ft | 195 kts | 14° |
| 2026-05-04 13:29 | 50.94609 | 4.51499 | 1601 ft | 176 kts | 13° |
| 2026-05-04 13:30 | 50.95722 | 4.51940 | 2605 ft | 162 kts | 13° |
| 2026-05-04 13:30 | 50.96848 | 4.52385 | 3162 ft | 171 kts | 13° |
| 2026-05-04 13:30 | 50.97998 | 4.52838 | 3842 ft | 172 kts | 13° |
| 2026-05-04 13:30 | 50.99200 | 4.53310 | 4359 ft | 185 kts | 13° |
| 2026-05-04 13:31 | 51.00507 | 4.53822 | 4854 ft | 201 kts | 13° |
| 2026-05-04 13:31 | 51.01924 | 4.54376 | 5330 ft | 219 kts | 13° |
| 2026-05-04 13:31 | 51.03462 | 4.54974 | 5824 ft | 236 kts | 13° |
| 2026-05-04 13:31 | 51.05113 | 4.55615 | 6317 ft | 254 kts | 13° |
| 2026-05-04 13:32 | 51.06882 | 4.56301 | 6809 ft | 269 kts | 13° |
| 2026-05-04 13:32 | 51.08731 | 4.57016 | 7496 ft | 277 kts | 13° |
| 2026-05-04 13:32 | 51.10623 | 4.57748 | 8257 ft | 282 kts | 13° |
| 2026-05-04 13:32 | 51.12543 | 4.58491 | 9027 ft | 287 kts | 13° |
| 2026-05-04 13:33 | 51.14496 | 4.59246 | 9806 ft | 291 kts | 13° |
| 2026-05-04 13:33 | 51.15830 | 4.59765 | 10284 ft | 295 kts | 14° |
| 2026-05-04 13:34 | 51.16471 | 4.60024 | 10385 ft | 302 kts | 14° |
| 2026-05-04 13:34 | 51.18305 | 4.61729 | 10359 ft | 327 kts | 84° |
| 2026-05-04 13:34 | 51.17985 | 4.63157 | 9951 ft | 1 kts | 169° |